sensor_id;sensor_type;location;lat;lon;timestamp;P1;durP1;ratioP1;P2;durP2;ratioP2
12314;SDS011;23886;46.614;14.276;2023-05-07T00:00:54;9.57;;;8.00;;
12314;SDS011;23886;46.614;14.276;2023-05-07T00:03:22;8.73;;;7.83;;
12314;SDS011;23886;46.614;14.276;2023-05-07T00:05:49;10.33;;;9.30;;
12314;SDS011;23886;46.614;14.276;2023-05-07T00:08:18;8.73;;;8.03;;
12314;SDS011;23886;46.614;14.276;2023-05-07T00:10:45;9.37;;;8.50;;
12314;SDS011;23886;46.614;14.276;2023-05-07T00:13:12;9.07;;;8.37;;
12314;SDS011;23886;46.614;14.276;2023-05-07T00:15:39;8.27;;;7.67;;
12314;SDS011;23886;46.614;14.276;2023-05-07T00:18:06;8.13;;;7.43;;
12314;SDS011;23886;46.614;14.276;2023-05-07T00:20:35;8.30;;;7.50;;
12314;SDS011;23886;46.614;14.276;2023-05-07T00:23:01;8.23;;;7.63;;
12314;SDS011;23886;46.614;14.276;2023-05-07T00:25:28;8.37;;;7.67;;
12314;SDS011;23886;46.614;14.276;2023-05-07T00:27:55;8.07;;;7.37;;
12314;SDS011;23886;46.614;14.276;2023-05-07T00:30:27;8.27;;;7.50;;
12314;SDS011;23886;46.614;14.276;2023-05-07T00:32:54;7.80;;;7.10;;
12314;SDS011;23886;46.614;14.276;2023-05-07T00:35:21;8.00;;;7.20;;
12314;SDS011;23886;46.614;14.276;2023-05-07T00:37:50;9.57;;;8.63;;
12314;SDS011;23886;46.614;14.276;2023-05-07T00:40:17;8.93;;;8.23;;
12314;SDS011;23886;46.614;14.276;2023-05-07T00:42:44;8.53;;;7.83;;
12314;SDS011;23886;46.614;14.276;2023-05-07T00:45:12;8.37;;;7.57;;
12314;SDS011;23886;46.614;14.276;2023-05-07T00:47:39;7.90;;;7.20;;
12314;SDS011;23886;46.614;14.276;2023-05-07T00:50:07;8.80;;;8.10;;
12314;SDS011;23886;46.614;14.276;2023-05-07T00:52:35;8.43;;;7.63;;
12314;SDS011;23886;46.614;14.276;2023-05-07T00:55:06;8.10;;;7.40;;
12314;SDS011;23886;46.614;14.276;2023-05-07T00:57:34;8.43;;;7.73;;
12314;SDS011;23886;46.614;14.276;2023-05-07T01:00:03;7.53;;;6.83;;
12314;SDS011;23886;46.614;14.276;2023-05-07T01:02:32;8.30;;;7.50;;
12314;SDS011;23886;46.614;14.276;2023-05-07T01:04:59;7.00;;;6.40;;
12314;SDS011;23886;46.614;14.276;2023-05-07T01:07:27;7.97;;;6.40;;
12314;SDS011;23886;46.614;14.276;2023-05-07T01:09:55;6.00;;;5.50;;
12314;SDS011;23886;46.614;14.276;2023-05-07T01:12:25;7.63;;;5.47;;
12314;SDS011;23886;46.614;14.276;2023-05-07T01:14:52;5.57;;;5.17;;
12314;SDS011;23886;46.614;14.276;2023-05-07T01:17:20;5.83;;;5.30;;
12314;SDS011;23886;46.614;14.276;2023-05-07T01:19:47;5.23;;;4.83;;
12314;SDS011;23886;46.614;14.276;2023-05-07T01:22:15;5.80;;;5.30;;
12314;SDS011;23886;46.614;14.276;2023-05-07T01:24:48;5.27;;;4.87;;
12314;SDS011;23886;46.614;14.276;2023-05-07T01:27:15;4.97;;;4.53;;
12314;SDS011;23886;46.614;14.276;2023-05-07T01:29:42;5.30;;;4.90;;
12314;SDS011;23886;46.614;14.276;2023-05-07T01:32:09;5.23;;;4.83;;
12314;SDS011;23886;46.614;14.276;2023-05-07T01:34:37;5.93;;;5.40;;
12314;SDS011;23886;46.614;14.276;2023-05-07T01:37:05;5.77;;;5.37;;
12314;SDS011;23886;46.614;14.276;2023-05-07T01:39:32;6.00;;;5.50;;
12314;SDS011;23886;46.614;14.276;2023-05-07T01:42:04;5.50;;;5.10;;
12314;SDS011;23886;46.614;14.276;2023-05-07T01:44:32;6.83;;;6.23;;
12314;SDS011;23886;46.614;14.276;2023-05-07T01:46:59;6.00;;;5.40;;
12314;SDS011;23886;46.614;14.276;2023-05-07T01:49:28;6.10;;;5.60;;
12314;SDS011;23886;46.614;14.276;2023-05-07T01:51:56;6.57;;;5.47;;
12314;SDS011;23886;46.614;14.276;2023-05-07T01:54:25;5.83;;;5.33;;
12314;SDS011;23886;46.614;14.276;2023-05-07T01:56:53;5.17;;;4.67;;
12314;SDS011;23886;46.614;14.276;2023-05-07T01:59:23;5.13;;;4.73;;
12314;SDS011;23886;46.614;14.276;2023-05-07T02:01:50;5.00;;;4.60;;
12314;SDS011;23886;46.614;14.276;2023-05-07T02:04:18;4.60;;;4.27;;
12314;SDS011;23886;46.614;14.276;2023-05-07T02:06:45;4.87;;;4.47;;
12314;SDS011;23886;46.614;14.276;2023-05-07T02:09:12;5.30;;;4.90;;
12314;SDS011;23886;46.614;14.276;2023-05-07T02:11:40;5.27;;;4.87;;
12314;SDS011;23886;46.614;14.276;2023-05-07T02:14:07;5.50;;;5.10;;
12314;SDS011;23886;46.614;14.276;2023-05-07T02:16:35;6.57;;;5.70;;
12314;SDS011;23886;46.614;14.276;2023-05-07T02:19:02;6.47;;;5.80;;
12314;SDS011;23886;46.614;14.276;2023-05-07T02:21:29;7.03;;;6.30;;
12314;SDS011;23886;46.614;14.276;2023-05-07T02:23:56;6.80;;;6.20;;
12314;SDS011;23886;46.614;14.276;2023-05-07T02:26:23;7.27;;;6.67;;
12314;SDS011;23886;46.614;14.276;2023-05-07T02:28:50;7.90;;;6.67;;
12314;SDS011;23886;46.614;14.276;2023-05-07T02:31:18;7.53;;;6.83;;
12314;SDS011;23886;46.614;14.276;2023-05-07T02:33:47;8.13;;;7.43;;
12314;SDS011;23886;46.614;14.276;2023-05-07T02:36:14;7.57;;;6.87;;
12314;SDS011;23886;46.614;14.276;2023-05-07T02:38:41;6.93;;;6.40;;
12314;SDS011;23886;46.614;14.276;2023-05-07T02:41:08;8.10;;;6.60;;
12314;SDS011;23886;46.614;14.276;2023-05-07T02:43:34;6.93;;;6.23;;
12314;SDS011;23886;46.614;14.276;2023-05-07T02:46:02;7.37;;;6.67;;
12314;SDS011;23886;46.614;14.276;2023-05-07T02:48:30;6.83;;;6.20;;
12314;SDS011;23886;46.614;14.276;2023-05-07T02:50:58;7.23;;;6.63;;
12314;SDS011;23886;46.614;14.276;2023-05-07T02:53:26;6.60;;;6.00;;
12314;SDS011;23886;46.614;14.276;2023-05-07T02:55:55;6.33;;;5.83;;
12314;SDS011;23886;46.614;14.276;2023-05-07T02:58:22;6.47;;;5.93;;
12314;SDS011;23886;46.614;14.276;2023-05-07T03:00:49;7.43;;;6.60;;
12314;SDS011;23886;46.614;14.276;2023-05-07T03:03:17;6.57;;;5.97;;
12314;SDS011;23886;46.614;14.276;2023-05-07T03:05:44;6.80;;;6.20;;
12314;SDS011;23886;46.614;14.276;2023-05-07T03:08:12;6.23;;;5.57;;
12314;SDS011;23886;46.614;14.276;2023-05-07T03:10:39;5.70;;;5.30;;
12314;SDS011;23886;46.614;14.276;2023-05-07T03:13:06;6.20;;;5.70;;
12314;SDS011;23886;46.614;14.276;2023-05-07T03:15:33;6.13;;;5.63;;
12314;SDS011;23886;46.614;14.276;2023-05-07T03:18:00;6.70;;;6.00;;
12314;SDS011;23886;46.614;14.276;2023-05-07T03:20:27;6.47;;;5.87;;
12314;SDS011;23886;46.614;14.276;2023-05-07T03:22:55;6.60;;;6.10;;
12314;SDS011;23886;46.614;14.276;2023-05-07T03:25:23;6.77;;;6.20;;
12314;SDS011;23886;46.614;14.276;2023-05-07T03:27:50;6.50;;;6.00;;
12314;SDS011;23886;46.614;14.276;2023-05-07T03:30:17;6.30;;;5.80;;
12314;SDS011;23886;46.614;14.276;2023-05-07T03:32:45;6.17;;;5.57;;
12314;SDS011;23886;46.614;14.276;2023-05-07T03:35:12;6.80;;;6.20;;
12314;SDS011;23886;46.614;14.276;2023-05-07T03:37:39;6.53;;;5.80;;
12314;SDS011;23886;46.614;14.276;2023-05-07T03:40:06;6.23;;;5.73;;
12314;SDS011;23886;46.614;14.276;2023-05-07T03:42:36;6.53;;;5.93;;
12314;SDS011;23886;46.614;14.276;2023-05-07T03:45:03;6.03;;;5.43;;
12314;SDS011;23886;46.614;14.276;2023-05-07T03:47:31;6.77;;;6.17;;
12314;SDS011;23886;46.614;14.276;2023-05-07T03:49:58;6.50;;;5.70;;
12314;SDS011;23886;46.614;14.276;2023-05-07T03:52:25;6.70;;;6.20;;
12314;SDS011;23886;46.614;14.276;2023-05-07T03:54:52;6.87;;;6.33;;
12314;SDS011;23886;46.614;14.276;2023-05-07T03:57:19;6.40;;;5.83;;
12314;SDS011;23886;46.614;14.276;2023-05-07T03:59:47;7.60;;;6.60;;
12314;SDS011;23886;46.614;14.276;2023-05-07T04:02:14;6.73;;;6.03;;
12314;SDS011;23886;46.614;14.276;2023-05-07T04:04:41;7.10;;;6.53;;
12314;SDS011;23886;46.614;14.276;2023-05-07T04:07:08;7.60;;;6.90;;
12314;SDS011;23886;46.614;14.276;2023-05-07T04:09:36;10.33;;;6.80;;
12314;SDS011;23886;46.614;14.276;2023-05-07T04:12:03;8.13;;;7.30;;
12314;SDS011;23886;46.614;14.276;2023-05-07T04:14:30;8.10;;;7.40;;
12314;SDS011;23886;46.614;14.276;2023-05-07T04:16:59;8.20;;;7.50;;
12314;SDS011;23886;46.614;14.276;2023-05-07T04:19:27;8.50;;;7.70;;
12314;SDS011;23886;46.614;14.276;2023-05-07T04:21:54;7.40;;;6.80;;
12314;SDS011;23886;46.614;14.276;2023-05-07T04:24:21;7.73;;;7.13;;
12314;SDS011;23886;46.614;14.276;2023-05-07T04:26:48;7.17;;;6.57;;
12314;SDS011;23886;46.614;14.276;2023-05-07T04:29:16;7.50;;;6.90;;
12314;SDS011;23886;46.614;14.276;2023-05-07T04:31:43;6.83;;;6.30;;
12314;SDS011;23886;46.614;14.276;2023-05-07T04:34:12;7.93;;;7.23;;
12314;SDS011;23886;46.614;14.276;2023-05-07T04:36:39;7.50;;;6.80;;
12314;SDS011;23886;46.614;14.276;2023-05-07T04:39:06;6.80;;;6.20;;
12314;SDS011;23886;46.614;14.276;2023-05-07T04:41:35;6.60;;;6.10;;
12314;SDS011;23886;46.614;14.276;2023-05-07T04:44:02;6.53;;;5.93;;
12314;SDS011;23886;46.614;14.276;2023-05-07T04:46:31;7.20;;;6.60;;
12314;SDS011;23886;46.614;14.276;2023-05-07T04:48:58;6.20;;;5.70;;
12314;SDS011;23886;46.614;14.276;2023-05-07T04:51:26;6.07;;;5.63;;
12314;SDS011;23886;46.614;14.276;2023-05-07T04:53:54;6.63;;;6.00;;
12314;SDS011;23886;46.614;14.276;2023-05-07T04:56:21;6.00;;;5.50;;
12314;SDS011;23886;46.614;14.276;2023-05-07T04:58:48;6.60;;;6.00;;
12314;SDS011;23886;46.614;14.276;2023-05-07T05:01:15;5.80;;;5.30;;
12314;SDS011;23886;46.614;14.276;2023-05-07T05:03:42;6.37;;;5.87;;
12314;SDS011;23886;46.614;14.276;2023-05-07T05:06:09;6.57;;;5.97;;
12314;SDS011;23886;46.614;14.276;2023-05-07T05:08:37;7.23;;;6.23;;
12314;SDS011;23886;46.614;14.276;2023-05-07T05:11:05;6.90;;;6.20;;
12314;SDS011;23886;46.614;14.276;2023-05-07T05:13:32;7.33;;;6.77;;
12314;SDS011;23886;46.614;14.276;2023-05-07T05:15:58;7.43;;;6.80;;
12314;SDS011;23886;46.614;14.276;2023-05-07T05:18:25;7.20;;;6.60;;
12314;SDS011;23886;46.614;14.276;2023-05-07T05:20:52;6.77;;;6.23;;
12314;SDS011;23886;46.614;14.276;2023-05-07T05:23:20;6.73;;;6.23;;
12314;SDS011;23886;46.614;14.276;2023-05-07T05:25:48;7.47;;;6.87;;
12314;SDS011;23886;46.614;14.276;2023-05-07T05:28:15;7.13;;;6.53;;
12314;SDS011;23886;46.614;14.276;2023-05-07T05:30:42;7.67;;;6.93;;
12314;SDS011;23886;46.614;14.276;2023-05-07T05:33:09;7.07;;;6.57;;
12314;SDS011;23886;46.614;14.276;2023-05-07T05:35:36;6.53;;;6.03;;
12314;SDS011;23886;46.614;14.276;2023-05-07T05:38:03;7.17;;;6.47;;
12314;SDS011;23886;46.614;14.276;2023-05-07T05:40:30;6.37;;;5.87;;
12314;SDS011;23886;46.614;14.276;2023-05-07T05:42:58;6.90;;;6.30;;
12314;SDS011;23886;46.614;14.276;2023-05-07T05:45:25;6.80;;;6.20;;
12314;SDS011;23886;46.614;14.276;2023-05-07T05:47:52;7.13;;;6.53;;
12314;SDS011;23886;46.614;14.276;2023-05-07T05:50:19;6.70;;;6.20;;
12314;SDS011;23886;46.614;14.276;2023-05-07T05:52:46;6.43;;;5.93;;
12314;SDS011;23886;46.614;14.276;2023-05-07T05:55:14;7.67;;;7.00;;
12314;SDS011;23886;46.614;14.276;2023-05-07T05:57:41;7.67;;;6.97;;
12314;SDS011;23886;46.614;14.276;2023-05-07T06:00:10;5.67;;;5.27;;
12314;SDS011;23886;46.614;14.276;2023-05-07T06:02:37;6.40;;;5.90;;
12314;SDS011;23886;46.614;14.276;2023-05-07T06:05:05;5.90;;;5.50;;
12314;SDS011;23886;46.614;14.276;2023-05-07T06:07:32;5.73;;;5.20;;
12314;SDS011;23886;46.614;14.276;2023-05-07T06:09:59;5.50;;;4.97;;
12314;SDS011;23886;46.614;14.276;2023-05-07T06:12:26;5.07;;;4.67;;
12314;SDS011;23886;46.614;14.276;2023-05-07T06:14:53;5.90;;;5.50;;
12314;SDS011;23886;46.614;14.276;2023-05-07T06:17:22;5.60;;;5.10;;
12314;SDS011;23886;46.614;14.276;2023-05-07T06:19:49;5.47;;;5.07;;
12314;SDS011;23886;46.614;14.276;2023-05-07T06:22:16;5.07;;;4.67;;
12314;SDS011;23886;46.614;14.276;2023-05-07T06:24:43;4.90;;;4.47;;
12314;SDS011;23886;46.614;14.276;2023-05-07T06:27:10;5.20;;;4.80;;
12314;SDS011;23886;46.614;14.276;2023-05-07T06:29:37;5.67;;;5.20;;
12314;SDS011;23886;46.614;14.276;2023-05-07T06:32:07;5.50;;;5.00;;
12314;SDS011;23886;46.614;14.276;2023-05-07T06:34:36;5.00;;;4.60;;
12314;SDS011;23886;46.614;14.276;2023-05-07T06:37:03;5.00;;;4.60;;
12314;SDS011;23886;46.614;14.276;2023-05-07T06:39:30;5.47;;;5.03;;
12314;SDS011;23886;46.614;14.276;2023-05-07T06:41:57;6.23;;;4.60;;
12314;SDS011;23886;46.614;14.276;2023-05-07T06:44:24;5.13;;;4.63;;
12314;SDS011;23886;46.614;14.276;2023-05-07T06:46:51;4.50;;;4.20;;
12314;SDS011;23886;46.614;14.276;2023-05-07T06:49:18;4.93;;;4.40;;
12314;SDS011;23886;46.614;14.276;2023-05-07T06:51:47;3.83;;;3.53;;
12314;SDS011;23886;46.614;14.276;2023-05-07T06:54:14;3.70;;;3.40;;
12314;SDS011;23886;46.614;14.276;2023-05-07T06:56:40;4.30;;;3.90;;
12314;SDS011;23886;46.614;14.276;2023-05-07T06:59:08;4.80;;;3.60;;
12314;SDS011;23886;46.614;14.276;2023-05-07T07:01:35;3.47;;;3.17;;
12314;SDS011;23886;46.614;14.276;2023-05-07T07:04:02;3.80;;;3.50;;
12314;SDS011;23886;46.614;14.276;2023-05-07T07:06:29;4.13;;;3.77;;
12314;SDS011;23886;46.614;14.276;2023-05-07T07:08:58;3.57;;;3.27;;
12314;SDS011;23886;46.614;14.276;2023-05-07T07:11:26;3.40;;;3.20;;
12314;SDS011;23886;46.614;14.276;2023-05-07T07:13:53;3.80;;;3.50;;
12314;SDS011;23886;46.614;14.276;2023-05-07T07:16:20;4.40;;;3.50;;
12314;SDS011;23886;46.614;14.276;2023-05-07T07:18:47;4.07;;;3.30;;
12314;SDS011;23886;46.614;14.276;2023-05-07T07:21:14;4.93;;;3.27;;
12314;SDS011;23886;46.614;14.276;2023-05-07T07:23:41;3.37;;;3.10;;
12314;SDS011;23886;46.614;14.276;2023-05-07T07:26:09;3.63;;;3.40;;
12314;SDS011;23886;46.614;14.276;2023-05-07T07:28:41;3.90;;;3.60;;
12314;SDS011;23886;46.614;14.276;2023-05-07T07:31:09;5.73;;;3.33;;
12314;SDS011;23886;46.614;14.276;2023-05-07T07:33:36;4.50;;;3.37;;
12314;SDS011;23886;46.614;14.276;2023-05-07T07:36:04;3.50;;;3.20;;
12314;SDS011;23886;46.614;14.276;2023-05-07T07:38:32;3.57;;;3.27;;
12314;SDS011;23886;46.614;14.276;2023-05-07T07:40:59;3.27;;;3.07;;
12314;SDS011;23886;46.614;14.276;2023-05-07T07:43:28;3.50;;;3.30;;
12314;SDS011;23886;46.614;14.276;2023-05-07T07:45:55;3.93;;;3.53;;
12314;SDS011;23886;46.614;14.276;2023-05-07T07:48:22;3.60;;;3.30;;
12314;SDS011;23886;46.614;14.276;2023-05-07T07:50:49;3.73;;;3.40;;
12314;SDS011;23886;46.614;14.276;2023-05-07T07:53:16;3.83;;;3.53;;
12314;SDS011;23886;46.614;14.276;2023-05-07T07:55:43;3.40;;;3.17;;
12314;SDS011;23886;46.614;14.276;2023-05-07T07:58:10;4.70;;;3.00;;
12314;SDS011;23886;46.614;14.276;2023-05-07T08:00:39;3.43;;;3.13;;
12314;SDS011;23886;46.614;14.276;2023-05-07T08:03:08;3.10;;;2.90;;
12314;SDS011;23886;46.614;14.276;2023-05-07T08:05:36;3.80;;;3.50;;
12314;SDS011;23886;46.614;14.276;2023-05-07T08:08:03;3.67;;;3.03;;
12314;SDS011;23886;46.614;14.276;2023-05-07T08:10:31;3.40;;;3.10;;
12314;SDS011;23886;46.614;14.276;2023-05-07T08:13:00;3.30;;;3.00;;
12314;SDS011;23886;46.614;14.276;2023-05-07T08:15:28;3.00;;;2.70;;
12314;SDS011;23886;46.614;14.276;2023-05-07T08:17:57;3.20;;;2.90;;
12314;SDS011;23886;46.614;14.276;2023-05-07T08:20:25;3.23;;;2.93;;
12314;SDS011;23886;46.614;14.276;2023-05-07T08:22:52;3.13;;;2.90;;
12314;SDS011;23886;46.614;14.276;2023-05-07T08:25:19;3.50;;;3.20;;
12314;SDS011;23886;46.614;14.276;2023-05-07T08:27:46;3.30;;;3.00;;
12314;SDS011;23886;46.614;14.276;2023-05-07T08:30:13;3.50;;;3.20;;
12314;SDS011;23886;46.614;14.276;2023-05-07T08:32:41;3.87;;;3.30;;
12314;SDS011;23886;46.614;14.276;2023-05-07T08:35:09;3.70;;;3.40;;
12314;SDS011;23886;46.614;14.276;2023-05-07T08:37:36;3.83;;;3.53;;
12314;SDS011;23886;46.614;14.276;2023-05-07T08:40:04;3.60;;;3.30;;
12314;SDS011;23886;46.614;14.276;2023-05-07T08:42:33;7.30;;;3.50;;
12314;SDS011;23886;46.614;14.276;2023-05-07T08:45:03;3.47;;;3.17;;
12314;SDS011;23886;46.614;14.276;2023-05-07T08:47:38;3.73;;;3.33;;
12314;SDS011;23886;46.614;14.276;2023-05-07T08:50:11;4.07;;;3.47;;
12314;SDS011;23886;46.614;14.276;2023-05-07T08:52:38;4.03;;;3.47;;
12314;SDS011;23886;46.614;14.276;2023-05-07T08:55:06;3.60;;;3.30;;
12314;SDS011;23886;46.614;14.276;2023-05-07T08:57:34;4.00;;;3.37;;
12314;SDS011;23886;46.614;14.276;2023-05-07T09:00:02;3.10;;;2.90;;
12314;SDS011;23886;46.614;14.276;2023-05-07T09:02:29;3.10;;;2.90;;
12314;SDS011;23886;46.614;14.276;2023-05-07T09:04:56;3.40;;;3.10;;
12314;SDS011;23886;46.614;14.276;2023-05-07T09:07:24;3.23;;;2.97;;
12314;SDS011;23886;46.614;14.276;2023-05-07T09:09:52;3.00;;;2.80;;
12314;SDS011;23886;46.614;14.276;2023-05-07T09:12:20;4.63;;;3.17;;
12314;SDS011;23886;46.614;14.276;2023-05-07T09:14:47;3.93;;;3.10;;
12314;SDS011;23886;46.614;14.276;2023-05-07T09:17:15;5.63;;;2.93;;
12314;SDS011;23886;46.614;14.276;2023-05-07T09:19:43;3.23;;;3.03;;
12314;SDS011;23886;46.614;14.276;2023-05-07T09:22:11;3.50;;;3.20;;
12314;SDS011;23886;46.614;14.276;2023-05-07T09:24:40;3.33;;;3.10;;
12314;SDS011;23886;46.614;14.276;2023-05-07T09:27:07;3.40;;;3.10;;
12314;SDS011;23886;46.614;14.276;2023-05-07T09:29:38;3.57;;;3.27;;
12314;SDS011;23886;46.614;14.276;2023-05-07T09:32:05;3.33;;;3.10;;
12314;SDS011;23886;46.614;14.276;2023-05-07T09:34:33;3.80;;;3.50;;
12314;SDS011;23886;46.614;14.276;2023-05-07T09:37:01;3.57;;;3.27;;
12314;SDS011;23886;46.614;14.276;2023-05-07T09:39:39;4.40;;;3.33;;
12314;SDS011;23886;46.614;14.276;2023-05-07T09:42:07;3.50;;;3.20;;
12314;SDS011;23886;46.614;14.276;2023-05-07T09:44:34;2.90;;;2.70;;
12314;SDS011;23886;46.614;14.276;2023-05-07T09:47:01;3.47;;;3.23;;
12314;SDS011;23886;46.614;14.276;2023-05-07T09:49:32;3.73;;;3.10;;
12314;SDS011;23886;46.614;14.276;2023-05-07T09:52:01;3.40;;;3.10;;
12314;SDS011;23886;46.614;14.276;2023-05-07T09:54:31;3.10;;;2.80;;
12314;SDS011;23886;46.614;14.276;2023-05-07T09:57:02;4.00;;;3.20;;
12314;SDS011;23886;46.614;14.276;2023-05-07T09:59:30;3.63;;;3.33;;
12314;SDS011;23886;46.614;14.276;2023-05-07T10:01:59;3.10;;;2.90;;
12314;SDS011;23886;46.614;14.276;2023-05-07T10:04:27;4.30;;;3.40;;
12314;SDS011;23886;46.614;14.276;2023-05-07T10:06:55;3.40;;;3.10;;
12314;SDS011;23886;46.614;14.276;2023-05-07T10:09:22;3.53;;;3.13;;
12314;SDS011;23886;46.614;14.276;2023-05-07T10:11:50;4.00;;;3.70;;
12314;SDS011;23886;46.614;14.276;2023-05-07T10:14:19;3.83;;;3.50;;
12314;SDS011;23886;46.614;14.276;2023-05-07T10:16:47;3.80;;;3.50;;
12314;SDS011;23886;46.614;14.276;2023-05-07T10:19:14;3.53;;;3.23;;
12314;SDS011;23886;46.614;14.276;2023-05-07T10:21:44;3.23;;;2.93;;
12314;SDS011;23886;46.614;14.276;2023-05-07T10:24:19;3.67;;;3.37;;
12314;SDS011;23886;46.614;14.276;2023-05-07T10:26:51;3.90;;;3.10;;
12314;SDS011;23886;46.614;14.276;2023-05-07T10:29:29;3.40;;;3.10;;
12314;SDS011;23886;46.614;14.276;2023-05-07T10:32:05;3.93;;;3.50;;
12314;SDS011;23886;46.614;14.276;2023-05-07T10:34:47;3.60;;;3.30;;
12314;SDS011;23886;46.614;14.276;2023-05-07T10:37:16;4.17;;;3.50;;
12314;SDS011;23886;46.614;14.276;2023-05-07T10:39:44;3.60;;;3.40;;
12314;SDS011;23886;46.614;14.276;2023-05-07T10:42:12;3.70;;;3.40;;
12314;SDS011;23886;46.614;14.276;2023-05-07T10:44:41;3.97;;;3.60;;
12314;SDS011;23886;46.614;14.276;2023-05-07T10:47:09;3.50;;;3.17;;
12314;SDS011;23886;46.614;14.276;2023-05-07T10:49:36;4.00;;;3.60;;
12314;SDS011;23886;46.614;14.276;2023-05-07T10:52:33;4.60;;;3.50;;
12314;SDS011;23886;46.614;14.276;2023-05-07T10:57:46;4.80;;;4.00;;
12314;SDS011;23886;46.614;14.276;2023-05-07T11:03:13;4.50;;;3.90;;
12314;SDS011;23886;46.614;14.276;2023-05-07T11:05:40;4.57;;;3.73;;
12314;SDS011;23886;46.614;14.276;2023-05-07T11:08:08;4.43;;;3.77;;
12314;SDS011;23886;46.614;14.276;2023-05-07T11:13:42;4.43;;;4.10;;
12314;SDS011;23886;46.614;14.276;2023-05-07T11:16:18;4.00;;;3.70;;
12314;SDS011;23886;46.614;14.276;2023-05-07T11:18:46;5.10;;;3.87;;
12314;SDS011;23886;46.614;14.276;2023-05-07T11:24:00;3.70;;;3.50;;
12314;SDS011;23886;46.614;14.276;2023-05-07T11:26:29;4.53;;;4.10;;
12314;SDS011;23886;46.614;14.276;2023-05-07T11:28:57;4.20;;;3.80;;
12314;SDS011;23886;46.614;14.276;2023-05-07T11:31:27;6.13;;;4.20;;
12314;SDS011;23886;46.614;14.276;2023-05-07T11:33:55;4.60;;;4.20;;
12314;SDS011;23886;46.614;14.276;2023-05-07T11:36:23;4.90;;;4.40;;
12314;SDS011;23886;46.614;14.276;2023-05-07T11:38:51;4.70;;;4.23;;
12314;SDS011;23886;46.614;14.276;2023-05-07T11:41:18;4.47;;;4.17;;
12314;SDS011;23886;46.614;14.276;2023-05-07T11:43:55;4.23;;;3.73;;
12314;SDS011;23886;46.614;14.276;2023-05-07T11:46:23;4.97;;;4.47;;
12314;SDS011;23886;46.614;14.276;2023-05-07T11:48:52;4.57;;;4.10;;
12314;SDS011;23886;46.614;14.276;2023-05-07T11:51:19;4.50;;;4.10;;
12314;SDS011;23886;46.614;14.276;2023-05-07T11:53:47;5.00;;;4.23;;
12314;SDS011;23886;46.614;14.276;2023-05-07T11:56:15;4.50;;;4.10;;
12314;SDS011;23886;46.614;14.276;2023-05-07T11:58:44;4.70;;;4.23;;
12314;SDS011;23886;46.614;14.276;2023-05-07T12:01:13;4.67;;;4.27;;
12314;SDS011;23886;46.614;14.276;2023-05-07T12:03:41;4.00;;;3.70;;
12314;SDS011;23886;46.614;14.276;2023-05-07T12:06:10;5.17;;;4.23;;
12314;SDS011;23886;46.614;14.276;2023-05-07T12:08:38;4.40;;;4.00;;
12314;SDS011;23886;46.614;14.276;2023-05-07T12:11:09;3.67;;;3.37;;
12314;SDS011;23886;46.614;14.276;2023-05-07T12:13:38;3.85;;;3.47;;
12314;SDS011;23886;46.614;14.276;2023-05-07T12:16:06;3.90;;;3.10;;
12314;SDS011;23886;46.614;14.276;2023-05-07T12:18:34;4.03;;;3.38;;
12314;SDS011;23886;46.614;14.276;2023-05-07T12:21:02;3.63;;;3.35;;
12314;SDS011;23886;46.614;14.276;2023-05-07T12:23:32;3.50;;;3.20;;
12314;SDS011;23886;46.614;14.276;2023-05-07T12:26:00;3.80;;;3.50;;
12314;SDS011;23886;46.614;14.276;2023-05-07T12:28:27;3.45;;;3.15;;
12314;SDS011;23886;46.614;14.276;2023-05-07T12:30:55;3.60;;;3.30;;
12314;SDS011;23886;46.614;14.276;2023-05-07T12:33:24;3.88;;;3.58;;
12314;SDS011;23886;46.614;14.276;2023-05-07T12:35:53;3.70;;;3.40;;
12314;SDS011;23886;46.614;14.276;2023-05-07T12:38:21;5.53;;;3.47;;
12314;SDS011;23886;46.614;14.276;2023-05-07T12:40:53;3.28;;;2.95;;
12314;SDS011;23886;46.614;14.276;2023-05-07T12:43:21;3.10;;;2.88;;
12314;SDS011;23886;46.614;14.276;2023-05-07T12:45:51;3.03;;;2.83;;
12314;SDS011;23886;46.614;14.276;2023-05-07T12:48:19;3.00;;;2.80;;
12314;SDS011;23886;46.614;14.276;2023-05-07T12:50:48;3.20;;;2.90;;
12314;SDS011;23886;46.614;14.276;2023-05-07T12:53:16;3.00;;;2.80;;
12314;SDS011;23886;46.614;14.276;2023-05-07T12:55:44;3.50;;;3.30;;
12314;SDS011;23886;46.614;14.276;2023-05-07T12:58:17;4.38;;;2.90;;
12314;SDS011;23886;46.614;14.276;2023-05-07T13:00:45;2.90;;;2.60;;
12314;SDS011;23886;46.614;14.276;2023-05-07T13:03:20;2.85;;;2.60;;
12314;SDS011;23886;46.614;14.276;2023-05-07T13:05:49;3.15;;;2.80;;
12314;SDS011;23886;46.614;14.276;2023-05-07T13:11:03;3.45;;;2.67;;
12314;SDS011;23886;46.614;14.276;2023-05-07T13:13:32;3.28;;;2.90;;
12314;SDS011;23886;46.614;14.276;2023-05-07T13:16:00;3.45;;;2.97;;
12314;SDS011;23886;46.614;14.276;2023-05-07T13:18:29;3.05;;;2.85;;
12314;SDS011;23886;46.614;14.276;2023-05-07T13:20:57;2.88;;;2.67;;
12314;SDS011;23886;46.614;14.276;2023-05-07T13:23:24;2.92;;;2.40;;
12314;SDS011;23886;46.614;14.276;2023-05-07T13:25:51;3.20;;;3.00;;
12314;SDS011;23886;46.614;14.276;2023-05-07T13:28:19;3.28;;;3.05;;
12314;SDS011;23886;46.614;14.276;2023-05-07T13:30:47;3.70;;;2.90;;
12314;SDS011;23886;46.614;14.276;2023-05-07T13:33:16;3.65;;;2.90;;
12314;SDS011;23886;46.614;14.276;2023-05-07T13:35:44;4.20;;;3.70;;
12314;SDS011;23886;46.614;14.276;2023-05-07T13:38:11;3.45;;;3.15;;
12314;SDS011;23886;46.614;14.276;2023-05-07T13:40:38;3.60;;;3.30;;
12314;SDS011;23886;46.614;14.276;2023-05-07T13:43:05;3.70;;;3.40;;
12314;SDS011;23886;46.614;14.276;2023-05-07T13:45:33;3.60;;;3.30;;
12314;SDS011;23886;46.614;14.276;2023-05-07T13:48:01;3.70;;;3.40;;
12314;SDS011;23886;46.614;14.276;2023-05-07T13:50:28;4.83;;;3.37;;
12314;SDS011;23886;46.614;14.276;2023-05-07T13:52:55;3.77;;;3.47;;
12314;SDS011;23886;46.614;14.276;2023-05-07T13:55:23;3.80;;;3.50;;
12314;SDS011;23886;46.614;14.276;2023-05-07T13:57:54;3.87;;;3.57;;
12314;SDS011;23886;46.614;14.276;2023-05-07T14:00:22;3.40;;;3.20;;
12314;SDS011;23886;46.614;14.276;2023-05-07T14:02:49;3.90;;;3.60;;
12314;SDS011;23886;46.614;14.276;2023-05-07T14:05:17;3.93;;;3.63;;
12314;SDS011;23886;46.614;14.276;2023-05-07T14:07:44;3.83;;;3.53;;
12314;SDS011;23886;46.614;14.276;2023-05-07T14:10:12;5.20;;;3.83;;
12314;SDS011;23886;46.614;14.276;2023-05-07T14:12:39;4.27;;;3.87;;
12314;SDS011;23886;46.614;14.276;2023-05-07T14:15:06;3.53;;;3.33;;
12314;SDS011;23886;46.614;14.276;2023-05-07T14:17:34;3.97;;;3.67;;
12314;SDS011;23886;46.614;14.276;2023-05-07T14:20:01;4.73;;;4.43;;
12314;SDS011;23886;46.614;14.276;2023-05-07T14:22:29;4.60;;;4.20;;
12314;SDS011;23886;46.614;14.276;2023-05-07T14:24:56;4.47;;;4.13;;
12314;SDS011;23886;46.614;14.276;2023-05-07T14:27:23;4.60;;;4.20;;
12314;SDS011;23886;46.614;14.276;2023-05-07T14:29:50;4.40;;;4.00;;
12314;SDS011;23886;46.614;14.276;2023-05-07T14:32:17;5.93;;;5.43;;
12314;SDS011;23886;46.614;14.276;2023-05-07T14:34:44;4.50;;;4.10;;
12314;SDS011;23886;46.614;14.276;2023-05-07T14:37:12;6.20;;;4.20;;
12314;SDS011;23886;46.614;14.276;2023-05-07T14:39:40;5.27;;;4.77;;
12314;SDS011;23886;46.614;14.276;2023-05-07T14:42:07;4.47;;;4.10;;
12314;SDS011;23886;46.614;14.276;2023-05-07T14:44:34;5.47;;;5.00;;
12314;SDS011;23886;46.614;14.276;2023-05-07T14:47:02;4.43;;;4.10;;
12314;SDS011;23886;46.614;14.276;2023-05-07T14:49:29;5.93;;;4.60;;
12314;SDS011;23886;46.614;14.276;2023-05-07T14:51:56;6.47;;;4.13;;